sensor_id;sensor_type;location;lat;lon;timestamp;temperature;humidity
21906;DHT22;11117;48.644;9.006;2023-01-20T05:24:28;-1.20;99.90
21906;DHT22;11117;48.644;9.006;2023-01-20T05:26:54;-1.20;99.90
21906;DHT22;11117;48.644;9.006;2023-01-20T05:29:19;-1.20;99.90
21906;DHT22;11117;48.644;9.006;2023-01-20T05:31:45;-1.30;99.90
21906;DHT22;11117;48.644;9.006;2023-01-20T05:34:10;-1.20;99.90
21906;DHT22;11117;48.644;9.006;2023-01-20T05:36:36;-1.10;99.90
21906;DHT22;11117;48.644;9.006;2023-01-20T05:39:01;-0.90;99.90
21906;DHT22;11117;48.644;9.006;2023-01-20T05:41:27;-0.80;99.90
21906;DHT22;11117;48.644;9.006;2023-01-20T05:43:53;-0.60;99.90
21906;DHT22;11117;48.644;9.006;2023-01-20T05:46:19;-0.60;99.90
21906;DHT22;11117;48.644;9.006;2023-01-20T05:48:45;-0.70;99.90
21906;DHT22;11117;48.644;9.006;2023-01-20T05:51:10;-0.80;99.90
21906;DHT22;11117;48.644;9.006;2023-01-20T05:53:36;-0.70;99.90
21906;DHT22;11117;48.644;9.006;2023-01-20T05:56:03;-0.80;99.90
21906;DHT22;11117;48.644;9.006;2023-01-20T05:58:29;-0.80;99.90
21906;DHT22;11117;48.644;9.006;2023-01-20T06:00:58;-0.70;99.90
21906;DHT22;11117;48.644;9.006;2023-01-20T06:03:27;-0.60;99.90
21906;DHT22;11117;48.644;9.006;2023-01-20T06:05:59;-0.50;99.90
21906;DHT22;11117;48.644;9.006;2023-01-20T06:08:24;-0.50;99.90
21906;DHT22;11117;48.644;9.006;2023-01-20T06:10:52;-0.50;99.90
21906;DHT22;11117;48.644;9.006;2023-01-20T06:13:17;-0.60;99.90
21906;DHT22;11117;48.644;9.006;2023-01-20T06:15:43;-0.60;99.90
21906;DHT22;11117;48.644;9.006;2023-01-20T06:18:08;-0.50;99.90
21906;DHT22;11117;48.644;9.006;2023-01-20T06:20:34;-0.40;99.90
21906;DHT22;11117;48.644;9.006;2023-01-20T06:22:59;-0.40;99.90
21906;DHT22;11117;48.644;9.006;2023-01-20T06:25:25;-0.40;99.90
21906;DHT22;11117;48.644;9.006;2023-01-20T06:27:50;-0.50;99.90
21906;DHT22;11117;48.644;9.006;2023-01-20T06:30:16;-0.40;99.90
21906;DHT22;11117;48.644;9.006;2023-01-20T06:32:42;-0.50;99.90
21906;DHT22;11117;48.644;9.006;2023-01-20T06:35:10;-0.50;99.90
21906;DHT22;11117;48.644;9.006;2023-01-20T06:37:35;-0.50;99.90
21906;DHT22;11117;48.644;9.006;2023-01-20T06:40:01;-0.40;99.90
21906;DHT22;11117;48.644;9.006;2023-01-20T06:42:26;-0.40;99.90
21906;DHT22;11117;48.644;9.006;2023-01-20T06:44:52;-0.50;99.90
21906;DHT22;11117;48.644;9.006;2023-01-20T06:47:17;-0.60;99.90
21906;DHT22;11117;48.644;9.006;2023-01-20T06:49:43;-0.60;99.90
21906;DHT22;11117;48.644;9.006;2023-01-20T06:52:08;-0.80;99.90
21906;DHT22;11117;48.644;9.006;2023-01-20T06:54:34;-1.00;99.90
21906;DHT22;11117;48.644;9.006;2023-01-20T06:56:59;-1.10;99.90
21906;DHT22;11117;48.644;9.006;2023-01-20T06:59:25;-1.30;99.90
21906;DHT22;11117;48.644;9.006;2023-01-20T07:01:51;-1.40;99.90
21906;DHT22;11117;48.644;9.006;2023-01-20T07:04:17;-1.50;99.90
21906;DHT22;11117;48.644;9.006;2023-01-20T07:06:42;-1.60;99.90
21906;DHT22;11117;48.644;9.006;2023-01-20T07:09:10;-1.70;99.90
21906;DHT22;11117;48.644;9.006;2023-01-20T07:11:36;-1.80;99.90
21906;DHT22;11117;48.644;9.006;2023-01-20T07:14:02;-2.00;99.90
21906;DHT22;11117;48.644;9.006;2023-01-20T07:16:29;-2.20;99.90
21906;DHT22;11117;48.644;9.006;2023-01-20T07:18:54;-2.30;99.90
21906;DHT22;11117;48.644;9.006;2023-01-20T07:21:20;-2.50;99.90
21906;DHT22;11117;48.644;9.006;2023-01-20T07:23:46;-2.60;99.90
21906;DHT22;11117;48.644;9.006;2023-01-20T07:26:14;-2.60;99.90
21906;DHT22;11117;48.644;9.006;2023-01-20T07:28:40;-2.60;99.90
21906;DHT22;11117;48.644;9.006;2023-01-20T07:31:11;-2.60;99.90
21906;DHT22;11117;48.644;9.006;2023-01-20T07:33:37;-2.70;99.90
21906;DHT22;11117;48.644;9.006;2023-01-20T07:36:04;-2.60;99.90
21906;DHT22;11117;48.644;9.006;2023-01-20T07:38:30;-2.60;99.90
21906;DHT22;11117;48.644;9.006;2023-01-20T07:41:00;-2.60;99.90
21906;DHT22;11117;48.644;9.006;2023-01-20T07:43:26;-2.60;99.90
21906;DHT22;11117;48.644;9.006;2023-01-20T07:45:58;-2.50;99.90
21906;DHT22;11117;48.644;9.006;2023-01-20T07:48:25;-2.60;99.90
21906;DHT22;11117;48.644;9.006;2023-01-20T07:50:58;-2.60;99.90
21906;DHT22;11117;48.644;9.006;2023-01-20T07:53:24;-2.50;99.90
21906;DHT22;11117;48.644;9.006;2023-01-20T07:55:49;-2.30;99.90
21906;DHT22;11117;48.644;9.006;2023-01-20T07:58:15;-2.30;99.90
21906;DHT22;11117;48.644;9.006;2023-01-20T08:00:41;-2.10;99.90
21906;DHT22;11117;48.644;9.006;2023-01-20T08:03:07;-2.00;99.90
21906;DHT22;11117;48.644;9.006;2023-01-20T08:05:32;-2.00;99.90
21906;DHT22;11117;48.644;9.006;2023-01-20T08:07:58;-1.90;99.90
21906;DHT22;11117;48.644;9.006;2023-01-20T08:10:23;-1.90;99.90
21906;DHT22;11117;48.644;9.006;2023-01-20T08:12:49;-1.70;99.90
21906;DHT22;11117;48.644;9.006;2023-01-20T08:15:15;-1.40;99.90
21906;DHT22;11117;48.644;9.006;2023-01-20T08:17:40;-1.10;99.90
21906;DHT22;11117;48.644;9.006;2023-01-20T08:20:06;-0.90;99.90
21906;DHT22;11117;48.644;9.006;2023-01-20T08:22:33;-0.70;99.90
21906;DHT22;11117;48.644;9.006;2023-01-20T08:24:59;-0.40;99.90
21906;DHT22;11117;48.644;9.006;2023-01-20T08:27:24;-0.30;99.90
21906;DHT22;11117;48.644;9.006;2023-01-20T08:29:50;-0.10;99.90
21906;DHT22;11117;48.644;9.006;2023-01-20T08:32:18;-0.10;99.90
21906;DHT22;11117;48.644;9.006;2023-01-20T08:34:43;-0.10;99.90
21906;DHT22;11117;48.644;9.006;2023-01-20T08:37:09;-0.30;99.90
21906;DHT22;11117;48.644;9.006;2023-01-20T08:39:34;-0.30;99.90
21906;DHT22;11117;48.644;9.006;2023-01-20T08:42:00;-0.40;99.90
21906;DHT22;11117;48.644;9.006;2023-01-20T08:44:26;-0.50;99.90
21906;DHT22;11117;48.644;9.006;2023-01-20T08:46:51;-0.70;99.90
21906;DHT22;11117;48.644;9.006;2023-01-20T08:49:17;-0.70;99.90
21906;DHT22;11117;48.644;9.006;2023-01-20T08:51:43;-0.90;99.90
21906;DHT22;11117;48.644;9.006;2023-01-20T08:54:08;-0.90;99.90
21906;DHT22;11117;48.644;9.006;2023-01-20T08:56:34;-0.90;99.90
21906;DHT22;11117;48.644;9.006;2023-01-20T08:59:00;-0.90;99.90
21906;DHT22;11117;48.644;9.006;2023-01-20T09:01:28;-0.90;99.90
21906;DHT22;11117;48.644;9.006;2023-01-20T09:03:55;-0.90;99.90
21906;DHT22;11117;48.644;9.006;2023-01-20T09:06:21;-0.90;99.90
21906;DHT22;11117;48.644;9.006;2023-01-20T09:08:48;-0.80;99.90
21906;DHT22;11117;48.644;9.006;2023-01-20T09:11:19;-0.50;99.90
21906;DHT22;11117;48.644;9.006;2023-01-20T09:13:46;-0.30;99.90
21906;DHT22;11117;48.644;9.006;2023-01-20T09:16:13;-0.20;99.90
21906;DHT22;11117;48.644;9.006;2023-01-20T09:18:39;-0.20;99.90
21906;DHT22;11117;48.644;9.006;2023-01-20T09:21:05;0.00;99.90
21906;DHT22;11117;48.644;9.006;2023-01-20T09:23:32;0.40;99.90
21906;DHT22;11117;48.644;9.006;2023-01-20T09:25:59;0.50;99.90
21906;DHT22;11117;48.644;9.006;2023-01-20T09:28:24;0.80;99.90
21906;DHT22;11117;48.644;9.006;2023-01-20T09:30:56;1.00;99.90
21906;DHT22;11117;48.644;9.006;2023-01-20T09:33:22;1.10;99.90
21906;DHT22;11117;48.644;9.006;2023-01-20T09:35:53;1.30;99.90
21906;DHT22;11117;48.644;9.006;2023-01-20T09:38:19;1.40;99.90
21906;DHT22;11117;48.644;9.006;2023-01-20T09:41:03;1.50;99.90
21906;DHT22;11117;48.644;9.006;2023-01-20T09:46:32;1.60;99.90
21906;DHT22;11117;48.644;9.006;2023-01-20T09:49:26;1.70;99.90
21906;DHT22;11117;48.644;9.006;2023-01-20T09:54:25;2.00;99.90
21906;DHT22;11117;48.644;9.006;2023-01-20T09:56:53;2.20;99.90
21906;DHT22;11117;48.644;9.006;2023-01-20T09:59:26;2.30;99.90
21906;DHT22;11117;48.644;9.006;2023-01-20T10:01:58;2.40;99.90
21906;DHT22;11117;48.644;9.006;2023-01-20T10:04:34;2.60;99.90
21906;DHT22;11117;48.644;9.006;2023-01-20T10:14:51;3.30;99.90
21906;DHT22;11117;48.644;9.006;2023-01-20T10:17:45;3.40;99.90
21906;DHT22;11117;48.644;9.006;2023-01-20T10:20:51;3.60;99.90
21906;DHT22;11117;48.644;9.006;2023-01-20T10:23:51;3.70;99.90
21906;DHT22;11117;48.644;9.006;2023-01-20T10:26:32;3.50;99.90
21906;DHT22;11117;48.644;9.006;2023-01-20T10:29:00;3.60;99.90
21906;DHT22;11117;48.644;9.006;2023-01-20T10:31:27;3.00;99.90
21906;DHT22;11117;48.644;9.006;2023-01-20T10:33:56;3.00;99.90
21906;DHT22;11117;48.644;9.006;2023-01-20T10:36:29;3.00;99.90
21906;DHT22;11117;48.644;9.006;2023-01-20T10:39:05;3.20;99.90
21906;DHT22;11117;48.644;9.006;2023-01-20T10:41:45;3.30;99.90
21906;DHT22;11117;48.644;9.006;2023-01-20T10:44:13;3.30;99.90
21906;DHT22;11117;48.644;9.006;2023-01-20T10:52:15;3.00;99.90
21906;DHT22;11117;48.644;9.006;2023-01-20T10:54:50;2.70;99.90
21906;DHT22;11117;48.644;9.006;2023-01-20T10:57:17;2.40;99.90
21906;DHT22;11117;48.644;9.006;2023-01-20T10:59:56;2.30;99.90
21906;DHT22;11117;48.644;9.006;2023-01-20T11:02:34;2.40;99.90
21906;DHT22;11117;48.644;9.006;2023-01-20T11:07:29;2.20;99.90
21906;DHT22;11117;48.644;9.006;2023-01-20T11:09:58;2.30;99.90
21906;DHT22;11117;48.644;9.006;2023-01-20T11:12:28;2.60;99.90
21906;DHT22;11117;48.644;9.006;2023-01-20T11:14:55;2.60;99.90
21906;DHT22;11117;48.644;9.006;2023-01-20T11:17:23;2.70;99.90
21906;DHT22;11117;48.644;9.006;2023-01-20T11:19:53;3.00;99.90
21906;DHT22;11117;48.644;9.006;2023-01-20T11:22:28;3.10;99.90
21906;DHT22;11117;48.644;9.006;2023-01-20T11:24:57;3.20;99.90
21906;DHT22;11117;48.644;9.006;2023-01-20T11:27:25;3.10;99.90
21906;DHT22;11117;48.644;9.006;2023-01-20T11:30:00;2.60;99.90
21906;DHT22;11117;48.644;9.006;2023-01-20T11:34:56;2.10;99.90
21906;DHT22;11117;48.644;9.006;2023-01-20T11:37:24;1.80;99.90
21906;DHT22;11117;48.644;9.006;2023-01-20T11:42:43;1.70;99.90
21906;DHT22;11117;48.644;9.006;2023-01-20T11:45:23;1.70;99.90
21906;DHT22;11117;48.644;9.006;2023-01-20T11:48:16;1.80;99.90
21906;DHT22;11117;48.644;9.006;2023-01-20T11:50:52;2.10;99.90
21906;DHT22;11117;48.644;9.006;2023-01-20T11:53:23;2.10;99.90
21906;DHT22;11117;48.644;9.006;2023-01-20T11:56:02;2.30;99.90
21906;DHT22;11117;48.644;9.006;2023-01-20T11:58:31;2.30;99.90
21906;DHT22;11117;48.644;9.006;2023-01-20T12:01:04;2.30;99.90
21906;DHT22;11117;48.644;9.006;2023-01-20T12:03:53;2.40;99.90
21906;DHT22;11117;48.644;9.006;2023-01-20T12:06:28;2.30;99.90
21906;DHT22;11117;48.644;9.006;2023-01-20T12:09:26;2.40;99.90
21906;DHT22;11117;48.644;9.006;2023-01-20T12:12:00;2.40;99.90
21906;DHT22;11117;48.644;9.006;2023-01-20T12:14:33;2.40;99.90
21906;DHT22;11117;48.644;9.006;2023-01-20T12:25:23;2.30;99.90
21906;DHT22;11117;48.644;9.006;2023-01-20T12:28:02;2.30;99.90
21906;DHT22;11117;48.644;9.006;2023-01-20T12:30:38;2.30;99.90
21906;DHT22;11117;48.644;9.006;2023-01-20T12:33:16;2.30;99.90
21906;DHT22;11117;48.644;9.006;2023-01-20T12:35:53;2.30;99.90
21906;DHT22;11117;48.644;9.006;2023-01-20T12:38:23;2.20;99.90
21906;DHT22;11117;48.644;9.006;2023-01-20T12:40:53;2.50;99.90
21906;DHT22;11117;48.644;9.006;2023-01-20T12:46:26;2.40;99.90
21906;DHT22;11117;48.644;9.006;2023-01-20T12:49:19;2.30;99.90
21906;DHT22;11117;48.644;9.006;2023-01-20T12:51:53;2.30;99.90
21906;DHT22;11117;48.644;9.006;2023-01-20T12:54:51;2.50;99.90
21906;DHT22;11117;48.644;9.006;2023-01-20T12:57:51;2.60;99.90
21906;DHT22;11117;48.644;9.006;2023-01-20T13:14:44;3.80;99.90
21906;DHT22;11117;48.644;9.006;2023-01-20T13:19:58;4.30;99.90
21906;DHT22;11117;48.644;9.006;2023-01-20T13:22:25;4.30;99.90
21906;DHT22;11117;48.644;9.006;2023-01-20T13:24:53;4.30;99.90
21906;DHT22;11117;48.644;9.006;2023-01-20T13:27:27;4.40;99.90
21906;DHT22;11117;48.644;9.006;2023-01-20T13:29:58;4.40;99.90
21906;DHT22;11117;48.644;9.006;2023-01-20T13:32:26;4.60;99.90
21906;DHT22;11117;48.644;9.006;2023-01-20T13:34:52;4.60;99.90
21906;DHT22;11117;48.644;9.006;2023-01-20T13:39:52;4.30;99.90
21906;DHT22;11117;48.644;9.006;2023-01-20T13:42:46;4.20;99.90
21906;DHT22;11117;48.644;9.006;2023-01-20T13:47:57;4.00;99.90
21906;DHT22;11117;48.644;9.006;2023-01-20T13:50:40;4.20;99.90
21906;DHT22;11117;48.644;9.006;2023-01-20T13:58:16;3.80;99.90
21906;DHT22;11117;48.644;9.006;2023-01-20T14:00:43;3.80;99.90
21906;DHT22;11117;48.644;9.006;2023-01-20T14:03:32;3.70;99.90
21906;DHT22;11117;48.644;9.006;2023-01-20T14:06:01;3.80;99.90
21906;DHT22;11117;48.644;9.006;2023-01-20T14:08:36;3.70;99.90
21906;DHT22;11117;48.644;9.006;2023-01-20T14:11:13;3.50;99.90
21906;DHT22;11117;48.644;9.006;2023-01-20T14:13:40;3.40;99.90
21906;DHT22;11117;48.644;9.006;2023-01-20T14:16:23;3.40;99.90
21906;DHT22;11117;48.644;9.006;2023-01-20T14:18:49;3.00;99.90
21906;DHT22;11117;48.644;9.006;2023-01-20T14:21:29;2.90;99.90
21906;DHT22;11117;48.644;9.006;2023-01-20T14:23:55;2.70;99.90
21906;DHT22;11117;48.644;9.006;2023-01-20T14:26:26;2.70;99.90
21906;DHT22;11117;48.644;9.006;2023-01-20T14:28:57;2.80;99.90
21906;DHT22;11117;48.644;9.006;2023-01-20T14:34:00;2.80;99.90
21906;DHT22;11117;48.644;9.006;2023-01-20T14:36:29;2.90;99.90
21906;DHT22;11117;48.644;9.006;2023-01-20T14:38:58;2.70;99.90
21906;DHT22;11117;48.644;9.006;2023-01-20T14:43:51;2.40;99.90
21906;DHT22;11117;48.644;9.006;2023-01-20T14:46:17;2.50;99.90
21906;DHT22;11117;48.644;9.006;2023-01-20T14:48:44;2.50;99.90
21906;DHT22;11117;48.644;9.006;2023-01-20T14:51:10;2.50;99.90
21906;DHT22;11117;48.644;9.006;2023-01-20T14:53:35;2.50;99.90
21906;DHT22;11117;48.644;9.006;2023-01-20T14:56:20;2.60;99.90
21906;DHT22;11117;48.644;9.006;2023-01-20T14:58:47;2.40;99.90
21906;DHT22;11117;48.644;9.006;2023-01-20T15:01:24;2.30;99.90
21906;DHT22;11117;48.644;9.006;2023-01-20T15:03:58;2.20;99.90
21906;DHT22;11117;48.644;9.006;2023-01-20T15:06:24;2.10;99.90
21906;DHT22;11117;48.644;9.006;2023-01-20T15:08:52;1.90;99.90
21906;DHT22;11117;48.644;9.006;2023-01-20T15:11:23;1.70;99.90
21906;DHT22;11117;48.644;9.006;2023-01-20T15:16:26;1.70;99.90
21906;DHT22;11117;48.644;9.006;2023-01-20T15:21:47;1.80;99.90
21906;DHT22;11117;48.644;9.006;2023-01-20T15:24:18;1.70;99.90
21906;DHT22;11117;48.644;9.006;2023-01-20T15:26:45;1.70;99.90
21906;DHT22;11117;48.644;9.006;2023-01-20T15:29:33;1.90;99.90
21906;DHT22;11117;48.644;9.006;2023-01-20T15:32:01;1.80;99.90
21906;DHT22;11117;48.644;9.006;2023-01-20T15:34:28;1.70;99.90
21906;DHT22;11117;48.644;9.006;2023-01-20T15:36:54;1.70;99.90
21906;DHT22;11117;48.644;9.006;2023-01-20T15:39:25;1.80;99.90
21906;DHT22;11117;48.644;9.006;2023-01-20T15:41:51;1.90;99.90
21906;DHT22;11117;48.644;9.006;2023-01-20T15:44:16;1.90;99.90
21906;DHT22;11117;48.644;9.006;2023-01-20T15:46:42;1.90;99.90
21906;DHT22;11117;48.644;9.006;2023-01-20T15:49:12;1.90;99.90
21906;DHT22;11117;48.644;9.006;2023-01-20T15:51:37;1.80;99.90
21906;DHT22;11117;48.644;9.006;2023-01-20T15:54:04;1.80;99.90
21906;DHT22;11117;48.644;9.006;2023-01-20T15:56:30;1.60;99.90
21906;DHT22;11117;48.644;9.006;2023-01-20T15:58:55;1.60;99.90
21906;DHT22;11117;48.644;9.006;2023-01-20T16:01:24;1.40;99.90
21906;DHT22;11117;48.644;9.006;2023-01-20T16:03:53;1.30;99.90
21906;DHT22;11117;48.644;9.006;2023-01-20T16:06:21;1.20;99.90
21906;DHT22;11117;48.644;9.006;2023-01-20T16:08:48;1.10;99.90
21906;DHT22;11117;48.644;9.006;2023-01-20T16:11:15;1.10;99.90
21906;DHT22;11117;48.644;9.006;2023-01-20T16:13:42;1.00;99.90
21906;DHT22;11117;48.644;9.006;2023-01-20T16:16:12;1.00;99.90
21906;DHT22;11117;48.644;9.006;2023-01-20T16:18:38;0.90;99.90
21906;DHT22;11117;48.644;9.006;2023-01-20T16:21:04;0.90;99.90
21906;DHT22;11117;48.644;9.006;2023-01-20T16:23:29;0.80;99.90
21906;DHT22;11117;48.644;9.006;2023-01-20T16:25:55;0.80;99.90
21906;DHT22;11117;48.644;9.006;2023-01-20T16:28:21;0.70;99.90
21906;DHT22;11117;48.644;9.006;2023-01-20T16:30:47;0.60;99.90
21906;DHT22;11117;48.644;9.006;2023-01-20T16:33:24;0.50;99.90
21906;DHT22;11117;48.644;9.006;2023-01-20T16:35:53;0.50;99.90
21906;DHT22;11117;48.644;9.006;2023-01-20T16:38:21;0.40;99.90
21906;DHT22;11117;48.644;9.006;2023-01-20T16:41:02;0.20;99.90
21906;DHT22;11117;48.644;9.006;2023-01-20T16:43:28;0.20;99.90
21906;DHT22;11117;48.644;9.006;2023-01-20T16:45:57;0.10;99.90
21906;DHT22;11117;48.644;9.006;2023-01-20T16:48:24;0.00;99.90
21906;DHT22;11117;48.644;9.006;2023-01-20T16:50:50;-0.10;99.90
21906;DHT22;11117;48.644;9.006;2023-01-20T16:53:17;-0.20;99.90
21906;DHT22;11117;48.644;9.006;2023-01-20T16:55:44;-0.20;99.90
21906;DHT22;11117;48.644;9.006;2023-01-20T16:58:11;-0.20;99.90
21906;DHT22;11117;48.644;9.006;2023-01-20T17:00:37;-0.30;99.90
21906;DHT22;11117;48.644;9.006;2023-01-20T17:03:03;-0.30;99.90
21906;DHT22;11117;48.644;9.006;2023-01-20T17:05:28;-0.20;99.90
21906;DHT22;11117;48.644;9.006;2023-01-20T17:07:54;-0.30;99.90
21906;DHT22;11117;48.644;9.006;2023-01-20T17:10:22;-0.30;99.90
21906;DHT22;11117;48.644;9.006;2023-01-20T17:12:47;-0.30;99.90
21906;DHT22;11117;48.644;9.006;2023-01-20T17:15:15;-0.40;99.90
21906;DHT22;11117;48.644;9.006;2023-01-20T17:17:59;-0.40;99.90
21906;DHT22;11117;48.644;9.006;2023-01-20T17:20:26;-0.40;99.90
21906;DHT22;11117;48.644;9.006;2023-01-20T17:22:52;-0.50;99.90
21906;DHT22;11117;48.644;9.006;2023-01-20T17:25:18;-0.50;99.90
21906;DHT22;11117;48.644;9.006;2023-01-20T17:27:43;-0.60;99.90
21906;DHT22;11117;48.644;9.006;2023-01-20T17:30:09;-0.60;99.90
21906;DHT22;11117;48.644;9.006;2023-01-20T17:32:36;-0.60;99.90
21906;DHT22;11117;48.644;9.006;2023-01-20T17:35:02;-0.70;99.90
21906;DHT22;11117;48.644;9.006;2023-01-20T17:37:28;-0.90;99.90
21906;DHT22;11117;48.644;9.006;2023-01-20T17:39:54;-0.90;99.90
21906;DHT22;11117;48.644;9.006;2023-01-20T17:42:19;-0.90;99.90
21906;DHT22;11117;48.644;9.006;2023-01-20T17:44:45;-0.90;99.90
21906;DHT22;11117;48.644;9.006;2023-01-20T17:47:11;-0.90;99.90
21906;DHT22;11117;48.644;9.006;2023-01-20T17:49:36;-1.00;99.90
21906;DHT22;11117;48.644;9.006;2023-01-20T17:52:02;-1.00;99.90
21906;DHT22;11117;48.644;9.006;2023-01-20T17:54:28;-1.10;99.90
21906;DHT22;11117;48.644;9.006;2023-01-20T17:56:53;-1.10;99.90
21906;DHT22;11117;48.644;9.006;2023-01-20T17:59:19;-1.10;99.90
21906;DHT22;11117;48.644;9.006;2023-01-20T18:01:44;-1.10;99.90
21906;DHT22;11117;48.644;9.006;2023-01-20T18:04:10;-1.10;99.90
21906;DHT22;11117;48.644;9.006;2023-01-20T18:06:36;-1.10;99.90
21906;DHT22;11117;48.644;9.006;2023-01-20T18:09:06;-1.20;99.90
21906;DHT22;11117;48.644;9.006;2023-01-20T18:11:34;-1.20;99.90
21906;DHT22;11117;48.644;9.006;2023-01-20T18:14:01;-1.20;99.90
21906;DHT22;11117;48.644;9.006;2023-01-20T18:16:29;-1.30;99.90
21906;DHT22;11117;48.644;9.006;2023-01-20T18:18:55;-1.30;99.90
21906;DHT22;11117;48.644;9.006;2023-01-20T18:21:22;-1.40;99.90
21906;DHT22;11117;48.644;9.006;2023-01-20T18:23:49;-1.40;99.90
21906;DHT22;11117;48.644;9.006;2023-01-20T18:26:18;-1.40;99.90
21906;DHT22;11117;48.644;9.006;2023-01-20T18:28:44;-1.40;99.90
21906;DHT22;11117;48.644;9.006;2023-01-20T18:31:18;-1.40;99.90
21906;DHT22;11117;48.644;9.006;2023-01-20T18:33:47;-1.40;99.90
21906;DHT22;11117;48.644;9.006;2023-01-20T18:36:18;-1.50;99.90
21906;DHT22;11117;48.644;9.006;2023-01-20T18:38:50;-1.50;99.90
21906;DHT22;11117;48.644;9.006;2023-01-20T18:41:16;-1.40;99.90
21906;DHT22;11117;48.644;9.006;2023-01-20T18:43:42;-1.40;99.90
21906;DHT22;11117;48.644;9.006;2023-01-20T18:46:10;-1.40;99.90
21906;DHT22;11117;48.644;9.006;2023-01-20T18:48:40;-1.40;99.90
21906;DHT22;11117;48.644;9.006;2023-01-20T18:51:07;-1.30;99.90
21906;DHT22;11117;48.644;9.006;2023-01-20T18:53:33;-1.20;99.90
21906;DHT22;11117;48.644;9.006;2023-01-20T18:56:04;-1.30;99.90
21906;DHT22;11117;48.644;9.006;2023-01-20T18:58:30;-1.30;99.90
21906;DHT22;11117;48.644;9.006;2023-01-20T19:03:27;-1.10;99.90
21906;DHT22;11117;48.644;9.006;2023-01-20T19:05:52;-1.10;99.90
21906;DHT22;11117;48.644;9.006;2023-01-20T19:08:18;-1.00;99.90
21906;DHT22;11117;48.644;9.006;2023-01-20T19:10:43;-1.00;99.90
21906;DHT22;11117;48.644;9.006;2023-01-20T19:13:09;-1.00;99.90
21906;DHT22;11117;48.644;9.006;2023-01-20T19:15:36;-1.00;99.90
21906;DHT22;11117;48.644;9.006;2023-01-20T19:18:04;-1.10;99.90
21906;DHT22;11117;48.644;9.006;2023-01-20T19:20:30;-1.20;99.90
21906;DHT22;11117;48.644;9.006;2023-01-20T19:22:55;-1.20;99.90
21906;DHT22;11117;48.644;9.006;2023-01-20T19:25:21;-1.20;99.90
21906;DHT22;11117;48.644;9.006;2023-01-20T19:27:47;-1.20;99.90
21906;DHT22;11117;48.644;9.006;2023-01-20T19:30:12;-1.30;99.90
21906;DHT22;11117;48.644;9.006;2023-01-20T19:32:41;-1.30;99.90
21906;DHT22;11117;48.644;9.006;2023-01-20T19:35:08;-1.30;99.90
21906;DHT22;11117;48.644;9.006;2023-01-20T19:37:33;-1.30;99.90
21906;DHT22;11117;48.644;9.006;2023-01-20T19:39:59;-1.40;99.90
21906;DHT22;11117;48.644;9.006;2023-01-20T19:42:24;-1.50;99.90
21906;DHT22;11117;48.644;9.006;2023-01-20T19:44:53;-1.50;99.90
21906;DHT22;11117;48.644;9.006;2023-01-20T19:47:18;-1.50;99.90
21906;DHT22;11117;48.644;9.006;2023-01-20T19:49:44;-1.40;99.90
21906;DHT22;11117;48.644;9.006;2023-01-20T19:52:09;-1.40;99.90
21906;DHT22;11117;48.644;9.006;2023-01-20T19:54:35;-1.40;99.90
21906;DHT22;11117;48.644;9.006;2023-01-20T19:57:00;-1.40;99.90
21906;DHT22;11117;48.644;9.006;2023-01-20T19:59:26;-1.40;99.90
21906;DHT22;11117;48.644;9.006;2023-01-20T20:01:51;-1.60;99.90
21906;DHT22;11117;48.644;9.006;2023-01-20T20:04:17;-1.70;99.90
21906;DHT22;11117;48.644;9.006;2023-01-20T20:06:43;-1.70;99.90
21906;DHT22;11117;48.644;9.006;2023-01-20T20:09:19;-1.70;99.90
21906;DHT22;11117;48.644;9.006;2023-01-20T20:11:47;-1.70;99.90
21906;DHT22;11117;48.644;9.006;2023-01-20T20:14:15;-1.80;99.90
21906;DHT22;11117;48.644;9.006;2023-01-20T20:16:41;-1.70;99.90
21906;DHT22;11117;48.644;9.006;2023-01-20T20:19:08;-1.80;99.90
21906;DHT22;11117;48.644;9.006;2023-01-20T20:21:34;-1.80;99.90
21906;DHT22;11117;48.644;9.006;2023-01-20T20:24:02;-1.80;99.90
21906;DHT22;11117;48.644;9.006;2023-01-20T20:26:31;-1.90;99.90
21906;DHT22;11117;48.644;9.006;2023-01-20T20:28:58;-1.70;99.90
21906;DHT22;11117;48.644;9.006;2023-01-20T20:31:24;-1.70;99.90
21906;DHT22;11117;48.644;9.006;2023-01-20T20:33:50;-1.60;99.90
21906;DHT22;11117;48.644;9.006;2023-01-20T20:36:15;-1.50;99.90
21906;DHT22;11117;48.644;9.006;2023-01-20T20:38:41;-1.50;99.90
21906;DHT22;11117;48.644;9.006;2023-01-20T20:41:08;-1.40;99.90
21906;DHT22;11117;48.644;9.006;2023-01-20T20:43:34;-1.40;99.90
21906;DHT22;11117;48.644;9.006;2023-01-20T20:46:01;-1.30;99.90
21906;DHT22;11117;48.644;9.006;2023-01-20T20:48:27;-1.30;99.90
21906;DHT22;11117;48.644;9.006;2023-01-20T20:50:56;-1.30;99.90
21906;DHT22;11117;48.644;9.006;2023-01-20T20:53:22;-1.20;99.90
21906;DHT22;11117;48.644;9.006;2023-01-20T20:55:47;-1.20;99.90
21906;DHT22;11117;48.644;9.006;2023-01-20T20:58:13;-1.10;99.90
21906;DHT22;11117;48.644;9.006;2023-01-20T21:00:39;-1.10;99.90
21906;DHT22;11117;48.644;9.006;2023-01-20T21:03:05;-1.10;99.90
21906;DHT22;11117;48.644;9.006;2023-01-20T21:05:31;-1.00;99.90
21906;DHT22;11117;48.644;9.006;2023-01-20T21:07:56;-1.10;99.90
21906;DHT22;11117;48.644;9.006;2023-01-20T21:10:22;-1.00;99.90
21906;DHT22;11117;48.644;9.006;2023-01-20T21:12:47;-1.00;99.90
21906;DHT22;11117;48.644;9.006;2023-01-20T21:15:13;-1.00;99.90
21906;DHT22;11117;48.644;9.006;2023-01-20T21:17:39;-1.00;99.90
21906;DHT22;11117;48.644;9.006;2023-01-20T21:20:07;-1.10;99.90
21906;DHT22;11117;48.644;9.006;2023-01-20T21:22:33;-1.00;99.90
21906;DHT22;11117;48.644;9.006;2023-01-20T21:24:59;-1.10;99.90
21906;DHT22;11117;48.644;9.006;2023-01-20T21:27:25;-1.00;99.90
21906;DHT22;11117;48.644;9.006;2023-01-20T21:29:50;-1.00;99.90
21906;DHT22;11117;48.644;9.006;2023-01-20T21:32:16;-0.90;99.90
21906;DHT22;11117;48.644;9.006;2023-01-20T21:34:41;-1.00;99.90
21906;DHT22;11117;48.644;9.006;2023-01-20T21:37:07;-1.00;99.90
21906;DHT22;11117;48.644;9.006;2023-01-20T21:39:33;-1.00;99.90
21906;DHT22;11117;48.644;9.006;2023-01-20T21:41:58;-1.00;99.90
21906;DHT22;11117;48.644;9.006;2023-01-20T21:44:24;-0.90;99.90
21906;DHT22;11117;48.644;9.006;2023-01-20T21:46:49;-1.00;99.90
21906;DHT22;11117;48.644;9.006;2023-01-20T21:49:15;-1.00;99.90
21906;DHT22;11117;48.644;9.006;2023-01-20T21:51:40;-1.10;99.90
21906;DHT22;11117;48.644;9.006;2023-01-20T21:54:06;-1.00;99.90
21906;DHT22;11117;48.644;9.006;2023-01-20T21:56:31;-1.00;99.90
21906;DHT22;11117;48.644;9.006;2023-01-20T21:58:57;-1.00;99.90
21906;DHT22;11117;48.644;9.006;2023-01-20T22:01:23;-1.00;99.90
21906;DHT22;11117;48.644;9.006;2023-01-20T22:03:48;-1.00;99.90
21906;DHT22;11117;48.644;9.006;2023-01-20T22:06:14;-1.00;99.90
21906;DHT22;11117;48.644;9.006;2023-01-20T22:08:39;-1.10;99.90
21906;DHT22;11117;48.644;9.006;2023-01-20T22:11:05;-1.10;99.90
21906;DHT22;11117;48.644;9.006;2023-01-20T22:13:30;-1.20;99.90
21906;DHT22;11117;48.644;9.006;2023-01-20T22:15:56;-1.10;99.90
21906;DHT22;11117;48.644;9.006;2023-01-20T22:18:25;-1.10;99.90
21906;DHT22;11117;48.644;9.006;2023-01-20T22:20:50;-1.00;99.90
21906;DHT22;11117;48.644;9.006;2023-01-20T22:23:16;-1.00;99.90
21906;DHT22;11117;48.644;9.006;2023-01-20T22:25:42;-1.00;99.90
21906;DHT22;11117;48.644;9.006;2023-01-20T22:28:07;-1.20;99.90